Time;durP1;ratioP1;P1;durP2;ratioP2;P2;SDS_P1;SDS_P2;PMS_P1;PMS_P2;Temp;Humidity;BMP_temperature;BMP_pressure;BME280_temperature;BME280_humidity;BME280_pressure;Samples;Min_cycle;Max_cycle;Signal;HPM_P1;HPM_P2
2021/06/22 00:00:17;;;;;;;13.17;4.83;;;23.30;68.50;;;;;;5087845;28;20206;-70
2021/06/22 00:02:44;;;;;;;13.97;4.73;;;23.40;68.90;;;;;;5085014;28;20290;-70
2021/06/22 00:05:12;;;;;;;13.40;4.40;;;23.30;69.00;;;;;;5087467;28;20219;-70
2021/06/22 00:07:39;;;;;;;13.17;4.30;;;23.40;69.10;;;;;;5087457;28;20223;-70
2021/06/22 00:10:07;;;;;;;12.20;4.83;;;23.40;68.70;;;;;;5086914;28;20213;-70
2021/06/22 00:12:33;;;;;;;20.80;4.23;;;23.30;68.60;;;;;;5084930;28;20258;-70
2021/06/22 00:15:02;;;;;;;13.70;4.87;;;23.30;68.50;;;;;;5083809;28;20717;-70
2021/06/22 00:17:29;;;;;;;13.27;4.57;;;23.20;68.40;;;;;;5084002;28;20274;-70
2021/06/22 00:19:56;;;;;;;16.27;4.73;;;23.20;68.40;;;;;;5086986;28;20251;-70
2021/06/22 00:22:23;;;;;;;22.23;4.67;;;23.10;68.40;;;;;;5089480;28;20216;-70
2021/06/22 00:24:50;;;;;;;12.33;4.00;;;23.10;68.40;;;;;;5084270;28;20213;-70
2021/06/22 00:27:18;;;;;;;15.87;4.03;;;23.00;68.30;;;;;;5086515;28;20224;-70
2021/06/22 00:29:49;;;;;;;17.00;4.87;;;23.00;68.30;;;;;;5085919;28;20278;-70
2021/06/22 00:32:17;;;;;;;16.27;4.37;;;22.90;68.50;;;;;;5088019;28;20250;-70
2021/06/22 00:34:45;;;;;;;11.20;4.07;;;22.90;68.70;;;;;;5085892;28;20229;-70
2021/06/22 00:37:17;;;;;;;11.27;4.60;;;22.90;68.90;;;;;;5084595;28;20643;-70
2021/06/22 00:39:45;;;;;;;19.57;5.00;;;22.90;69.20;;;;;;5081770;28;20218;-70
2021/06/22 00:42:12;;;;;;;15.43;3.90;;;22.90;69.40;;;;;;5086687;28;20225;-70
2021/06/22 00:44:54;;;;;;;19.00;5.47;;;22.90;69.40;;;;;;5084199;28;20213;-70
2021/06/22 00:47:22;;;;;;;30.20;6.57;;;22.90;69.40;;;;;;5083241;28;20222;-70
2021/06/22 00:49:49;;;;;;;16.30;5.37;;;22.90;69.40;;;;;;5084365;28;20217;-70
2021/06/22 00:52:21;;;;;;;15.63;4.23;;;22.90;69.40;;;;;;5084042;28;20229;-70
2021/06/22 00:54:48;;;;;;;13.70;5.53;;;22.90;69.10;;;;;;5084137;28;20229;-70
2021/06/22 00:57:17;;;;;;;13.97;4.57;;;22.90;68.90;;;;;;5084088;28;20214;-70
2021/06/22 00:59:45;;;;;;;15.47;5.97;;;22.90;68.90;;;;;;5084396;28;20206;-70
2021/06/22 01:02:12;;;;;;;14.40;4.77;;;22.80;68.90;;;;;;5074693;28;20213;-70
2021/06/22 01:04:41;;;;;;;14.07;4.77;;;22.80;68.90;;;;;;5074828;28;20217;-70
2021/06/22 01:07:10;;;;;;;24.77;5.57;;;22.70;68.90;;;;;;5078466;28;20278;-70
2021/06/22 01:09:38;;;;;;;13.30;5.00;;;22.70;68.70;;;;;;5083561;28;20240;-70
2021/06/22 01:12:06;;;;;;;13.70;4.50;;;22.60;68.20;;;;;;5087502;28;20213;-70
2021/06/22 01:14:33;;;;;;;17.63;4.97;;;22.70;67.80;;;;;;5086779;28;20287;-70
2021/06/22 01:17:00;;;;;;;17.23;4.03;;;22.70;67.70;;;;;;5085443;28;20213;-70
2021/06/22 01:19:29;;;;;;;16.70;4.77;;;22.70;67.50;;;;;;5085520;28;20217;-70
2021/06/22 01:21:56;;;;;;;23.50;4.77;;;22.70;66.90;;;;;;5090506;28;20217;-70
2021/06/22 01:24:27;;;;;;;19.07;5.00;;;22.70;66.80;;;;;;5084677;28;20313;-70
2021/06/22 01:26:59;;;;;;;21.57;4.90;;;22.70;66.90;;;;;;5083304;28;20221;-70
2021/06/22 01:29:28;;;;;;;14.97;4.80;;;22.60;66.70;;;;;;5082346;28;20223;-70
2021/06/22 01:31:57;;;;;;;21.87;4.67;;;22.60;66.60;;;;;;5085726;28;20209;-70
2021/06/22 01:34:26;;;;;;;12.50;4.40;;;22.60;66.60;;;;;;5085651;28;20237;-70
2021/06/22 01:36:56;;;;;;;20.27;4.50;;;22.60;66.50;;;;;;5092225;28;20595;-70
2021/06/22 01:39:23;;;;;;;19.33;4.47;;;22.60;66.60;;;;;;5082582;28;20263;-70
2021/06/22 01:41:50;;;;;;;20.53;5.30;;;22.60;66.60;;;;;;5092391;28;20209;-70
2021/06/22 01:44:17;;;;;;;23.13;5.20;;;22.50;66.50;;;;;;5087183;28;20273;-70
2021/06/22 01:46:45;;;;;;;11.37;3.93;;;22.60;66.50;;;;;;5080780;28;20210;-70
2021/06/22 01:49:12;;;;;;;17.43;5.23;;;22.60;66.40;;;;;;5085814;28;20212;-70
2021/06/22 01:51:39;;;;;;;20.50;5.37;;;22.60;66.30;;;;;;5085956;28;20213;-70
2021/06/22 01:54:06;;;;;;;20.03;4.67;;;22.60;66.30;;;;;;5086210;28;20687;-70
2021/06/22 01:56:34;;;;;;;25.47;6.17;;;22.60;66.30;;;;;;5089327;28;20208;-70
2021/06/22 01:59:02;;;;;;;21.17;5.00;;;22.70;66.10;;;;;;5086086;28;20205;-70
2021/06/22 02:01:30;;;;;;;21.93;4.80;;;22.70;66.20;;;;;;5082562;28;20213;-70
2021/06/22 02:03:58;;;;;;;15.00;5.63;;;22.70;66.30;;;;;;5086679;28;20275;-70
2021/06/22 02:06:25;;;;;;;17.07;5.30;;;22.70;66.40;;;;;;5086707;28;20217;-70
2021/06/22 02:08:52;;;;;;;21.17;5.37;;;22.70;66.20;;;;;;5087200;28;20247;-70
2021/06/22 02:11:19;;;;;;;18.97;5.23;;;22.70;66.10;;;;;;5081745;28;20209;-70
2021/06/22 02:13:48;;;;;;;14.93;5.13;;;22.80;65.80;;;;;;5084769;28;20377;-70
2021/06/22 02:16:16;;;;;;;16.10;4.83;;;22.80;65.70;;;;;;5073678;28;20375;-70
2021/06/22 02:18:44;;;;;;;25.93;5.60;;;22.90;65.60;;;;;;5074140;28;20263;-70
2021/06/22 02:21:12;;;;;;;17.07;4.83;;;22.90;65.30;;;;;;5086653;28;20711;-70
2021/06/22 02:23:40;;;;;;;14.93;5.30;;;22.90;65.20;;;;;;5083174;28;20237;-70
2021/06/22 02:26:07;;;;;;;14.00;4.27;;;23.00;65.00;;;;;;5083680;28;20225;-70
2021/06/22 02:28:35;;;;;;;21.20;6.00;;;23.00;64.90;;;;;;5081720;28;20220;-71
2021/06/22 02:31:02;;;;;;;15.83;5.53;;;23.00;64.70;;;;;;5086001;28;20638;-70
2021/06/22 02:33:29;;;;;;;20.07;4.53;;;23.00;64.50;;;;;;5086439;28;20208;-70
2021/06/22 02:35:56;;;;;;;15.83;4.97;;;23.00;64.40;;;;;;5082402;28;20303;-70
2021/06/22 02:38:23;;;;;;;17.87;4.90;;;23.00;64.40;;;;;;5086801;28;20205;-70
2021/06/22 02:40:50;;;;;;;15.20;5.37;;;23.00;64.70;;;;;;5087963;28;20213;-70
2021/06/22 02:43:17;;;;;;;12.97;4.63;;;22.90;65.00;;;;;;5089290;28;20212;-70
2021/06/22 02:45:45;;;;;;;22.43;5.30;;;22.80;65.30;;;;;;5081146;28;20213;-70
2021/06/22 02:48:12;;;;;;;22.17;5.97;;;22.70;65.60;;;;;;5084899;28;20978;-70
2021/06/22 02:50:40;;;;;;;16.40;4.67;;;22.60;66.20;;;;;;5085465;28;20232;-70
2021/06/22 02:53:08;;;;;;;15.03;5.47;;;22.50;66.50;;;;;;5082316;28;20516;-70
2021/06/22 02:55:37;;;;;;;17.03;5.83;;;22.40;66.70;;;;;;5086491;28;20637;-70
2021/06/22 02:58:03;;;;;;;12.97;4.97;;;22.30;67.10;;;;;;5081710;28;20213;-70
2021/06/22 03:00:31;;;;;;;16.07;5.07;;;22.30;67.50;;;;;;5087582;28;20213;-70
2021/06/22 03:02:59;;;;;;;19.20;6.03;;;22.20;67.90;;;;;;5088913;28;20206;-70
2021/06/22 03:05:26;;;;;;;19.57;5.47;;;22.10;68.10;;;;;;5088685;28;20217;-70
2021/06/22 03:07:54;;;;;;;19.57;5.33;;;22.00;68.40;;;;;;5087415;28;20213;-70
2021/06/22 03:10:23;;;;;;;15.10;5.20;;;22.00;68.60;;;;;;5084426;28;20287;-70
2021/06/22 03:12:51;;;;;;;22.87;5.47;;;21.90;68.90;;;;;;5076879;28;20214;-70
2021/06/22 03:15:19;;;;;;;20.53;5.60;;;21.80;69.10;;;;;;5076577;28;20241;-70
2021/06/22 03:17:48;;;;;;;14.23;5.47;;;21.70;69.50;;;;;;5083778;28;20719;-70
2021/06/22 03:20:17;;;;;;;14.23;5.27;;;21.60;70.00;;;;;;5084477;28;20630;-70
2021/06/22 03:22:44;;;;;;;19.10;5.30;;;21.60;70.20;;;;;;5087610;28;20217;-70
2021/06/22 03:25:12;;;;;;;19.70;5.57;;;21.60;70.30;;;;;;5088715;28;20209;-70
2021/06/22 03:27:39;;;;;;;20.33;5.37;;;21.60;70.30;;;;;;5090170;28;20246;-70
2021/06/22 03:30:09;;;;;;;14.27;5.80;;;21.60;70.20;;;;;;5085894;28;20221;-70
2021/06/22 03:32:37;;;;;;;16.80;5.47;;;21.60;70.80;;;;;;5076533;28;20652;-70
2021/06/22 03:35:08;;;;;;;19.67;5.77;;;21.50;71.20;;;;;;5092669;28;20302;-70
2021/06/22 03:37:35;;;;;;;15.13;5.67;;;21.60;71.50;;;;;;5084147;28;20217;-70
2021/06/22 03:40:05;;;;;;;13.37;4.80;;;21.60;71.30;;;;;;5084817;28;20209;-70
2021/06/22 03:42:33;;;;;;;18.03;5.40;;;21.60;71.10;;;;;;5088318;28;20217;-70
2021/06/22 03:45:03;;;;;;;18.73;5.57;;;21.50;70.80;;;;;;5087976;28;20220;-70
2021/06/22 03:47:30;;;;;;;25.00;7.13;;;21.50;70.80;;;;;;5082609;28;20275;-70
2021/06/22 03:49:57;;;;;;;17.17;5.17;;;21.40;71.20;;;;;;5086775;28;20673;-70
2021/06/22 03:52:24;;;;;;;20.97;5.83;;;21.30;71.60;;;;;;5076500;28;20225;-70
2021/06/22 03:54:51;;;;;;;17.90;5.50;;;21.30;71.70;;;;;;5076276;28;20654;-70
2021/06/22 03:57:18;;;;;;;23.17;5.77;;;21.30;71.80;;;;;;5076877;28;20213;-70
2021/06/22 03:59:45;;;;;;;21.10;6.20;;;21.40;71.80;;;;;;5084020;28;20630;-70
2021/06/22 04:02:12;;;;;;;17.57;5.87;;;21.40;71.80;;;;;;5086785;28;20221;-70
2021/06/22 04:04:39;;;;;;;20.23;6.03;;;21.50;71.80;;;;;;5085985;28;20217;-70
2021/06/22 04:07:06;;;;;;;15.80;6.07;;;21.50;71.70;;;;;;5090739;28;20342;-70
2021/06/22 04:09:33;;;;;;;16.50;5.73;;;21.60;71.60;;;;;;5083101;28;20251;-70
2021/06/22 04:12:00;;;;;;;16.83;5.57;;;21.60;71.80;;;;;;5088056;28;20220;-70
2021/06/22 04:14:27;;;;;;;18.87;6.17;;;21.70;71.80;;;;;;5084108;28;20566;-70
2021/06/22 04:16:54;;;;;;;18.07;6.27;;;21.80;71.80;;;;;;5082938;28;20608;-71
2021/06/22 04:19:21;;;;;;;20.33;6.30;;;21.90;71.70;;;;;;5087154;28;20213;-70
2021/06/22 04:21:48;;;;;;;24.93;7.40;;;21.90;71.50;;;;;;5094691;28;20212;-70
2021/06/22 04:24:15;;;;;;;21.60;5.47;;;22.00;71.10;;;;;;5086144;28;20864;-70
2021/06/22 04:26:42;;;;;;;11.60;5.03;;;22.00;71.00;;;;;;5088341;28;20720;-70
2021/06/22 04:29:09;;;;;;;16.63;5.93;;;22.10;71.40;;;;;;5087908;28;20569;-71
2021/06/22 04:31:36;;;;;;;18.83;5.80;;;22.20;71.30;;;;;;5086772;28;20205;-71
2021/06/22 04:34:03;;;;;;;21.17;5.67;;;22.30;71.00;;;;;;5083622;28;20269;-70
2021/06/22 04:36:30;;;;;;;16.60;6.50;;;22.40;70.80;;;;;;5087523;28;20229;-70
2021/06/22 04:38:57;;;;;;;13.07;5.37;;;22.50;70.70;;;;;;5086804;28;20231;-70
2021/06/22 04:41:24;;;;;;;19.90;7.63;;;22.70;70.60;;;;;;5083634;28;20883;-70
2021/06/22 04:43:51;;;;;;;22.83;6.63;;;22.80;70.00;;;;;;5087012;28;20690;-70
2021/06/22 04:46:18;;;;;;;16.73;5.50;;;22.80;69.30;;;;;;5087943;28;20626;-70
2021/06/22 04:48:46;;;;;;;18.33;5.70;;;22.90;69.20;;;;;;5092081;28;20267;-70
2021/06/22 04:51:14;;;;;;;20.03;6.33;;;23.10;68.80;;;;;;5083574;28;20228;-70
2021/06/22 04:53:41;;;;;;;17.57;4.67;;;23.10;68.30;;;;;;5084816;28;20220;-70
2021/06/22 04:56:09;;;;;;;20.40;5.77;;;23.30;68.40;;;;;;5088132;28;20228;-70
2021/06/22 04:58:36;;;;;;;16.90;5.03;;;23.40;68.40;;;;;;5083469;28;20213;-70
2021/06/22 05:01:04;;;;;;;19.07;5.67;;;23.50;68.20;;;;;;5081658;28;20214;-70
2021/06/22 05:03:32;;;;;;;17.07;5.57;;;23.60;68.40;;;;;;5086243;28;20587;-70
2021/06/22 05:05:59;;;;;;;23.93;6.97;;;23.70;68.20;;;;;;5074826;28;20218;-70
2021/06/22 05:08:27;;;;;;;22.87;6.53;;;23.80;67.70;;;;;;5078011;28;20217;-70
2021/06/22 05:10:54;;;;;;;24.30;5.30;;;24.00;67.30;;;;;;5087811;28;20290;-70
2021/06/22 05:13:21;;;;;;;22.33;5.80;;;24.10;67.00;;;;;;5074656;28;20267;-70
2021/06/22 05:15:48;;;;;;;20.10;5.40;;;24.20;66.70;;;;;;5081567;28;20951;-70
2021/06/22 05:18:16;;;;;;;23.43;6.07;;;24.40;66.50;;;;;;5074613;28;20214;-70
2021/06/22 05:20:42;;;;;;;19.70;5.03;;;24.50;66.20;;;;;;5087115;28;20213;-70
2021/06/22 05:23:09;;;;;;;22.13;5.53;;;24.60;66.10;;;;;;5084524;28;20240;-70
2021/06/22 05:25:41;;;;;;;17.77;5.47;;;24.80;65.80;;;;;;5085687;28;20213;-70
2021/06/22 05:28:09;;;;;;;19.13;5.97;;;24.90;65.20;;;;;;5083808;28;20275;-70
2021/06/22 05:30:36;;;;;;;19.60;5.37;;;25.00;65.00;;;;;;5083950;28;20267;-70
2021/06/22 05:33:03;;;;;;;19.60;5.27;;;25.20;64.30;;;;;;5086011;28;20224;-70
2021/06/22 05:35:32;;;;;;;17.50;4.97;;;25.40;63.70;;;;;;5086488;28;20233;-70
2021/06/22 05:37:59;;;;;;;15.87;4.80;;;25.60;62.90;;;;;;5085679;28;20210;-70
2021/06/22 05:40:27;;;;;;;17.30;4.63;;;25.90;62.30;;;;;;5078807;28;20231;-70
2021/06/22 05:42:54;;;;;;;21.23;5.43;;;26.20;61.80;;;;;;5084542;28;20208;-70
2021/06/22 05:45:21;;;;;;;16.97;4.70;;;26.40;61.00;;;;;;5084827;28;20217;-70
2021/06/22 05:47:49;;;;;;;15.27;5.30;;;26.70;59.80;;;;;;5082719;28;20228;-70
2021/06/22 05:50:16;;;;;;;17.70;4.77;;;26.80;58.70;;;;;;5088306;28;20223;-70
2021/06/22 05:52:45;;;;;;;18.73;4.80;;;27.00;58.30;;;;;;5084853;28;20216;-71
2021/06/22 05:55:16;;;;;;;20.30;5.80;;;27.10;57.50;;;;;;5089213;28;20232;-71
2021/06/22 05:57:45;;;;;;;13.97;4.60;;;27.20;57.00;;;;;;5084097;28;20220;-71
2021/06/22 06:00:13;;;;;;;18.27;5.13;;;27.30;56.50;;;;;;5077784;28;20213;-71
2021/06/22 06:02:40;;;;;;;19.57;4.80;;;27.40;56.40;;;;;;5077754;28;20209;-71
2021/06/22 06:05:09;;;;;;;26.63;6.17;;;27.50;56.20;;;;;;5081198;28;20627;-70
2021/06/22 06:07:36;;;;;;;20.30;5.03;;;27.60;56.10;;;;;;5081247;28;20206;-70
2021/06/22 06:10:04;;;;;;;16.13;6.00;;;27.70;56.00;;;;;;5084455;28;20209;-70
2021/06/22 06:12:31;;;;;;;20.87;4.77;;;27.80;55.50;;;;;;5084517;28;20255;-70
2021/06/22 06:14:59;;;;;;;17.00;4.97;;;27.90;55.50;;;;;;5084742;28;20630;-70
2021/06/22 06:17:25;;;;;;;18.50;5.47;;;28.00;55.00;;;;;;5083009;28;20213;-72
2021/06/22 06:19:52;;;;;;;15.43;4.23;;;28.00;55.00;;;;;;5088145;28;20213;-71
2021/06/22 06:22:20;;;;;;;18.30;5.40;;;28.20;55.30;;;;;;5080990;28;20224;-71
2021/06/22 06:24:47;;;;;;;17.60;5.50;;;28.30;54.60;;;;;;5084208;28;20213;-71
2021/06/22 06:27:19;;;;;;;18.80;5.43;;;28.40;54.00;;;;;;5079976;28;20213;-71
2021/06/22 06:32:13;;;;;;;18.40;5.07;;;28.50;53.40;;;;;;5081987;28;20221;-71
2021/06/22 06:34:41;;;;;;;15.70;5.17;;;28.60;53.40;;;;;;5080757;28;20290;-71
2021/06/22 06:37:08;;;;;;;19.47;4.60;;;28.70;53.50;;;;;;5083941;28;20377;-71
2021/06/22 06:39:35;;;;;;;21.13;4.73;;;28.80;53.70;;;;;;5085361;28;20782;-71
2021/06/22 06:42:03;;;;;;;13.43;4.63;;;28.90;53.40;;;;;;5080667;28;20626;-71
2021/06/22 06:44:30;;;;;;;21.70;4.53;;;29.00;52.20;;;;;;5081732;28;20214;-71
2021/06/22 06:46:57;;;;;;;17.77;4.30;;;29.10;52.60;;;;;;5078365;28;20213;-70
2021/06/22 06:49:24;;;;;;;14.00;4.67;;;29.20;52.00;;;;;;5084896;28;20213;-70
2021/06/22 06:51:51;;;;;;;20.57;4.70;;;29.30;51.90;;;;;;5082169;28;20571;-70
2021/06/22 06:54:18;;;;;;;17.43;4.50;;;29.40;51.40;;;;;;5082319;28;20247;-70
2021/06/22 06:56:45;;;;;;;15.93;4.47;;;29.30;51.40;;;;;;5083553;28;20240;-70
2021/06/22 06:59:12;;;;;;;16.90;4.47;;;29.40;51.70;;;;;;5087413;28;20216;-70
2021/06/22 07:01:39;;;;;;;17.40;4.33;;;29.50;51.30;;;;;;5082830;28;21168;-70
2021/06/22 07:04:06;;;;;;;18.27;4.20;;;29.80;50.80;;;;;;5081153;28;20216;-70
2021/06/22 07:06:34;;;;;;;18.40;4.47;;;29.90;50.60;;;;;;5081995;28;20210;-70
2021/06/22 07:09:00;;;;;;;18.50;4.50;;;30.10;49.60;;;;;;5078375;28;20296;-70
2021/06/22 07:11:28;;;;;;;14.43;3.70;;;30.40;48.90;;;;;;5083669;28;20209;-70
2021/06/22 07:13:55;;;;;;;19.60;3.87;;;30.30;48.40;;;;;;5079256;28;20241;-70
2021/06/22 07:16:22;;;;;;;14.67;3.73;;;30.30;48.60;;;;;;5082785;28;20237;-70
2021/06/22 07:18:49;;;;;;;16.47;4.87;;;30.30;47.90;;;;;;5080659;28;20225;-70
2021/06/22 07:21:18;;;;;;;19.50;4.10;;;30.30;48.20;;;;;;5083286;28;20214;-70
2021/06/22 07:23:47;;;;;;;15.40;4.03;;;30.40;48.40;;;;;;5082835;28;20201;-70
2021/06/22 07:26:32;;;;;;;21.90;4.83;;;30.60;47.40;;;;;;5082357;28;20719;-70
2021/06/22 07:28:59;;;;;;;11.37;3.73;;;30.60;46.90;;;;;;5079298;28;20282;-70
2021/06/22 07:31:26;;;;;;;19.83;4.03;;;30.80;47.40;;;;;;5084321;28;20271;-70
2021/06/22 07:33:53;;;;;;;14.70;4.20;;;31.00;47.30;;;;;;5081806;28;20647;-70
2021/06/22 07:36:20;;;;;;;16.63;4.47;;;31.30;46.80;;;;;;5083454;28;20241;-70
2021/06/22 07:38:48;;;;;;;14.80;4.07;;;31.40;46.40;;;;;;5081278;28;20696;-70
2021/06/22 07:41:17;;;;;;;12.13;3.57;;;31.50;46.00;;;;;;5091085;28;20213;-70
2021/06/22 07:43:45;;;;;;;15.33;4.23;;;31.70;45.90;;;;;;5083541;28;20264;-70
2021/06/22 07:46:12;;;;;;;15.20;4.37;;;31.90;45.50;;;;;;5084727;28;20611;-70
2021/06/22 07:48:41;;;;;;;19.73;5.00;;;32.00;46.00;;;;;;5087072;28;20677;-70
2021/06/22 07:51:08;;;;;;;14.27;3.97;;;32.10;45.10;;;;;;5087796;28;20221;-70
2021/06/22 07:53:35;;;;;;;12.87;3.77;;;32.10;45.10;;;;;;5087304;28;20209;-70
2021/06/22 07:56:02;;;;;;;18.97;4.03;;;32.30;44.30;;;;;;5087216;28;20229;-70
2021/06/22 07:58:30;;;;;;;13.63;4.47;;;32.50;43.60;;;;;;5075039;28;20213;-70
2021/06/22 08:00:57;;;;;;;19.13;4.40;;;32.60;43.30;;;;;;5075160;28;20327;-70
2021/06/22 08:03:26;;;;;;;15.33;4.13;;;32.80;42.90;;;;;;5075337;28;20292;-70
2021/06/22 08:05:54;;;;;;;21.73;3.47;;;32.90;42.40;;;;;;5075490;28;20213;-70
2021/06/22 08:08:22;;;;;;;14.93;4.00;;;33.00;42.50;;;;;;5081910;28;20217;-71
2021/06/22 08:10:52;;;;;;;16.53;4.23;;;33.00;42.80;;;;;;5084154;28;20217;-71
2021/06/22 08:13:20;;;;;;;19.07;4.10;;;33.20;42.40;;;;;;5092441;28;20236;-71
2021/06/22 08:15:47;;;;;;;12.83;3.87;;;33.40;42.10;;;;;;5086368;28;20217;-71
2021/06/22 08:18:15;;;;;;;11.40;3.73;;;33.50;42.50;;;;;;5083559;28;20300;-71
2021/06/22 08:20:43;;;;;;;14.57;4.13;;;33.60;40.90;;;;;;5088238;28;20568;-71
2021/06/22 08:23:11;;;;;;;12.03;3.10;;;33.70;40.40;;;;;;5087840;28;20209;-71
2021/06/22 08:25:38;;;;;;;14.83;3.80;;;33.90;40.70;;;;;;5087827;28;20217;-71
2021/06/22 08:28:06;;;;;;;15.73;3.90;;;34.00;40.20;;;;;;5085553;28;20216;-71
2021/06/22 08:30:33;;;;;;;10.80;3.50;;;34.10;40.50;;;;;;5086681;28;20214;-69
2021/06/22 08:33:02;;;;;;;17.10;4.37;;;34.20;39.60;;;;;;5074934;28;20217;-69
2021/06/22 08:35:31;;;;;;;18.63;4.40;;;34.30;39.20;;;;;;5074939;28;20664;-69
2021/06/22 08:37:59;;;;;;;11.07;3.57;;;34.30;39.30;;;;;;5084443;28;20244;-69
2021/06/22 08:40:26;;;;;;;14.60;3.77;;;34.50;39.80;;;;;;5084666;28;20221;-70
2021/06/22 08:42:54;;;;;;;14.20;4.20;;;34.60;38.80;;;;;;5084169;28;20206;-70
2021/06/22 08:45:21;;;;;;;20.53;4.10;;;34.50;39.00;;;;;;5086435;28;20205;-69
2021/06/22 08:47:49;;;;;;;15.27;3.73;;;34.50;38.90;;;;;;5084385;28;20264;-69
2021/06/22 08:50:17;;;;;;;14.97;3.53;;;34.40;39.10;;;;;;5087154;28;20680;-69
2021/06/22 08:52:45;;;;;;;12.93;4.10;;;34.40;39.00;;;;;;5083704;28;20222;-69
2021/06/22 08:55:29;;;;;;;18.03;4.17;;;34.60;38.80;;;;;;5084858;28;20246;-69
2021/06/22 08:58:00;;;;;;;19.53;3.73;;;34.70;38.80;;;;;;5084455;28;20295;-68
2021/06/22 09:00:29;;;;;;;14.80;3.43;;;34.80;38.50;;;;;;5083276;28;20210;-69
2021/06/22 09:03:16;;;;;;;16.47;4.23;;;34.90;38.40;;;;;;5087259;28;20197;-69
2021/06/22 09:05:48;;;;;;;12.77;3.80;;;35.00;37.80;;;;;;5083387;28;20209;-69
2021/06/22 09:08:18;;;;;;;12.27;3.27;;;35.00;37.60;;;;;;5080411;28;20223;-69
2021/06/22 09:10:44;;;;;;;13.83;3.07;;;35.10;37.30;;;;;;5082155;28;20217;-69
2021/06/22 09:13:23;;;;;;;12.03;3.87;;;35.20;37.60;;;;;;5084554;28;20209;-69
2021/06/22 09:15:55;;;;;;;9.93;4.70;;;35.30;37.40;;;;;;5083533;28;20213;-69
2021/06/22 09:18:27;;;;;;;13.27;3.43;;;35.40;36.60;;;;;;5083174;28;20598;-68
2021/06/22 09:20:57;;;;;;;12.40;3.93;;;35.40;37.30;;;;;;5087471;28;20530;-69
2021/06/22 09:23:29;;;;;;;11.87;3.43;;;35.50;36.70;;;;;;5082917;28;20267;-69
2021/06/22 09:25:57;;;;;;;15.73;3.60;;;35.60;36.30;;;;;;5083453;28;20221;-68
2021/06/22 09:28:29;;;;;;;10.23;2.80;;;35.70;36.00;;;;;;5082233;28;20214;-68
2021/06/22 09:31:05;;;;;;;15.57;3.47;;;35.80;36.20;;;;;;5074096;28;20221;-68
2021/06/22 09:33:33;;;;;;;10.67;2.40;;;35.80;36.20;;;;;;5074178;28;20213;-69
2021/06/22 09:36:20;;;;;;;6.67;3.27;;;35.70;34.80;;;;;;5073804;28;20267;-69
2021/06/22 09:38:49;;;;;;;13.80;2.97;;;35.70;34.80;;;;;;5080307;28;20578;-69
2021/06/22 09:41:18;;;;;;;12.57;3.13;;;35.80;35.20;;;;;;5082317;28;20215;-68
2021/06/22 09:43:47;;;;;;;15.17;3.40;;;35.80;35.50;;;;;;5082399;28;20244;-69
2021/06/22 09:46:16;;;;;;;14.23;3.10;;;35.80;35.40;;;;;;5084312;28;20223;-69
2021/06/22 09:48:59;;;;;;;12.80;3.80;;;35.70;35.90;;;;;;5088031;28;20209;-69
2021/06/22 09:51:35;;;;;;;7.97;3.20;;;35.80;36.10;;;;;;5081459;28;20274;-69
2021/06/22 09:54:20;;;;;;;14.00;2.50;;;35.80;36.00;;;;;;5083168;28;20587;-69
2021/06/22 09:57:15;;;;;;;10.57;3.47;;;35.70;35.30;;;;;;5083314;28;20310;-70
2021/06/22 09:59:52;;;;;;;7.50;2.80;;;35.60;35.30;;;;;;5084303;28;20205;-69
2021/06/22 10:02:26;;;;;;;8.30;3.07;;;35.60;35.20;;;;;;5082832;28;20217;-69
2021/06/22 10:04:58;;;;;;;12.13;3.33;;;35.60;35.70;;;;;;5082044;28;20213;-69
2021/06/22 10:07:27;;;;;;;14.80;2.93;;;35.60;35.40;;;;;;5083009;28;20224;-69
2021/06/22 10:10:00;;;;;;;14.30;3.23;;;35.70;35.40;;;;;;5081856;28;20217;-69
2021/06/22 10:12:29;;;;;;;6.93;2.60;;;35.80;35.40;;;;;;5082980;28;20217;-69
2021/06/22 10:15:01;;;;;;;12.47;3.70;;;35.90;34.90;;;;;;5082074;28;20268;-69
2021/06/22 10:17:31;;;;;;;9.17;3.07;;;36.00;33.70;;;;;;5089575;28;20316;-69
2021/06/22 10:20:00;;;;;;;10.63;2.93;;;35.90;34.00;;;;;;5085438;28;20568;-69
2021/06/22 10:22:31;;;;;;;10.33;3.07;;;35.90;34.20;;;;;;5081836;28;20206;-69
2021/06/22 10:25:00;;;;;;;10.30;2.40;;;36.00;34.20;;;;;;5085872;28;20215;-69
2021/06/22 10:27:29;;;;;;;6.83;1.87;;;36.10;34.40;;;;;;5081505;28;20214;-70
2021/06/22 10:29:59;;;;;;;10.80;2.57;;;36.20;33.80;;;;;;5083856;28;20213;-69
2021/06/22 10:32:27;;;;;;;5.97;2.33;;;36.30;33.10;;;;;;5084511;28;20262;-69
2021/06/22 10:34:58;;;;;;;9.17;2.50;;;36.40;32.10;;;;;;5082091;28;20701;-70
2021/06/22 10:37:45;;;;;;;10.37;3.13;;;36.40;33.10;;;;;;5081750;28;20241;-71
2021/06/22 10:40:24;;;;;;;7.77;2.20;;;36.50;33.40;;;;;;5083904;28;20205;-71
2021/06/22 10:43:00;;;;;;;5.00;2.20;;;36.70;33.20;;;;;;5082945;28;20213;-71
2021/06/22 10:46:02;;;;;;;13.90;2.67;;;36.80;33.90;;;;;;5083925;28;20213;-71
2021/06/22 10:48:47;;;;;;;16.50;3.00;;;36.90;32.70;;;;;;5085289;28;20237;-71
2021/06/22 10:51:32;;;;;;;6.43;2.63;;;36.90;32.70;;;;;;5084470;28;20267;-71
2021/06/22 10:53:59;;;;;;;9.87;2.80;;;36.80;32.20;;;;;;5083711;28;20217;-71
2021/06/22 10:56:29;;;;;;;12.90;2.63;;;36.80;32.60;;;;;;5080123;28;20651;-71
2021/06/22 10:59:19;;;;;;;9.60;2.73;;;36.70;31.60;;;;;;5083502;28;20221;-71
2021/06/22 11:01:56;;;;;;;12.67;3.60;;;36.50;32.50;;;;;;5083138;28;20226;-71
2021/06/22 11:04:24;;;;;;;6.23;2.80;;;36.40;32.60;;;;;;5084959;28;20205;-71
2021/06/22 11:07:06;;;;;;;8.07;3.10;;;36.40;32.50;;;;;;5080114;28;20217;-71
2021/06/22 11:09:37;;;;;;;10.30;2.50;;;36.40;32.50;;;;;;5086280;28;20214;-72
2021/06/22 11:12:22;;;;;;;8.70;2.70;;;36.40;33.10;;;;;;5082273;28;20278;-72
2021/06/22 11:15:01;;;;;;;11.87;2.57;;;36.50;33.90;;;;;;5080910;28;20884;-71
2021/06/22 11:17:43;;;;;;;8.33;2.33;;;36.60;33.30;;;;;;5081794;28;20233;-71
2021/06/22 11:20:15;;;;;;;4.90;1.90;;;36.80;32.80;;;;;;5084351;28;20213;-71
2021/06/22 11:23:13;;;;;;;5.97;2.17;;;36.90;32.20;;;;;;5087225;28;20264;-71
2021/06/22 11:26:03;;;;;;;5.53;2.20;;;36.90;30.50;;;;;;5079479;28;20231;-71
2021/06/22 11:28:55;;;;;;;4.90;2.30;;;36.50;31.40;;;;;;5087091;28;20296;-70
2021/06/22 11:31:35;;;;;;;10.03;2.53;;;36.30;31.90;;;;;;5088133;28;20541;-70
2021/06/22 11:34:13;;;;;;;9.47;2.43;;;36.30;32.60;;;;;;5087324;28;20204;-70
2021/06/22 11:36:45;;;;;;;4.77;1.70;;;36.40;32.70;;;;;;5086196;28;20213;-71
2021/06/22 11:39:21;;;;;;;5.00;1.63;;;36.50;31.50;;;;;;5088330;28;20236;-71
2021/06/22 11:42:14;;;;;;;5.93;1.60;;;36.70;31.60;;;;;;5086606;28;20580;-71
2021/06/22 11:44:44;;;;;;;6.47;1.60;;;36.80;29.90;;;;;;5088008;28;20213;-70
2021/06/22 11:47:14;;;;;;;6.27;1.70;;;36.70;30.70;;;;;;5083869;28;20231;-71
2021/06/22 11:49:48;;;;;;;7.63;1.90;;;36.70;30.20;;;;;;5090763;28;20213;-70
2021/06/22 11:52:17;;;;;;;5.47;1.67;;;36.70;30.30;;;;;;5084797;28;20303;-70
2021/06/22 11:54:50;;;;;;;4.50;1.40;;;36.70;30.70;;;;;;5083882;28;20209;-70
2021/06/22 11:57:19;;;;;;;3.17;1.53;;;36.80;29.60;;;;;;5082012;28;20655;-70
2021/06/22 11:59:48;;;;;;;4.27;1.63;;;36.80;30.50;;;;;;5085036;28;20228;-70
2021/06/22 12:02:15;;;;;;;4.77;1.40;;;36.90;28.30;;;;;;5087796;28;20561;-70
2021/06/22 12:04:45;;;;;;;3.47;1.27;;;36.80;28.50;;;;;;5083965;28;20554;-70
2021/06/22 12:07:12;;;;;;;4.83;1.27;;;36.70;28.30;;;;;;5084328;28;20217;-70
2021/06/22 12:09:40;;;;;;;3.90;1.50;;;36.60;28.30;;;;;;5087343;28;20208;-70
2021/06/22 12:12:08;;;;;;;7.33;1.50;;;36.50;28.60;;;;;;5087492;28;20231;-70
2021/06/22 12:14:42;;;;;;;3.80;1.40;;;36.50;29.80;;;;;;5087605;28;20807;-71
2021/06/22 12:17:17;;;;;;;7.67;1.33;;;36.60;29.00;;;;;;5083086;28;20229;-71
2021/06/22 12:19:44;;;;;;;3.50;1.47;;;36.60;29.60;;;;;;5087687;28;20534;-71
2021/06/22 12:22:14;;;;;;;5.47;1.50;;;36.70;30.00;;;;;;5085679;28;20208;-71
2021/06/22 12:24:43;;;;;;;3.37;1.03;;;36.80;29.60;;;;;;5086905;28;20213;-70
2021/06/22 12:27:10;;;;;;;5.17;1.53;;;36.80;29.40;;;;;;5080409;28;20214;-70
2021/06/22 12:29:42;;;;;;;5.63;1.70;;;36.80;29.30;;;;;;5085125;28;20219;-70
2021/06/22 12:32:10;;;;;;;6.70;1.67;;;36.70;28.60;;;;;;5086103;28;20209;-70
2021/06/22 12:34:41;;;;;;;9.33;1.60;;;36.60;29.10;;;;;;5084915;28;20210;-71
2021/06/22 12:37:24;;;;;;;6.10;1.37;;;36.50;30.10;;;;;;5083361;28;20621;-70
2021/06/22 12:39:51;;;;;;;6.83;1.73;;;36.50;29.70;;;;;;5083944;28;20221;-70
2021/06/22 12:42:21;;;;;;;7.97;1.83;;;36.50;29.90;;;;;;5074675;28;20222;-70
2021/06/22 12:44:48;;;;;;;4.97;1.80;;;36.60;29.50;;;;;;5074943;28;20228;-71
2021/06/22 12:47:15;;;;;;;5.67;1.70;;;36.60;29.70;;;;;;5075108;28;20219;-71
2021/06/22 12:49:44;;;;;;;6.40;1.50;;;36.60;30.10;;;;;;5084605;28;20209;-70
2021/06/22 12:52:13;;;;;;;3.73;1.30;;;36.60;30.10;;;;;;5085142;28;20312;-70